Time;durP1;ratioP1;P1;durP2;ratioP2;P2;SDS_P1;SDS_P2;PMS_P1;PMS_P2;Temp;Humidity;BMP_temperature;BMP_pressure;BME280_temperature;BME280_humidity;BME280_pressure;Samples;Min_cycle;Max_cycle;Signal;HPM_P1;HPM_P2
2021/03/18 00:00:30;;;;;;;3.45;1.40;;;5.10;92.00;;;;;;5072818;28;20028;-93
2021/03/18 00:02:56;;;;;;;5.72;1.25;;;5.10;92.00;;;;;;5074238;28;20388;-94
2021/03/18 00:05:22;;;;;;;7.18;1.40;;;5.10;92.00;;;;;;5059857;28;20135;-93
2021/03/18 00:07:47;;;;;;;4.50;1.33;;;5.10;92.00;;;;;;5074806;28;20017;-94
2021/03/18 00:10:15;;;;;;;4.10;1.30;;;5.10;92.00;;;;;;5057828;28;20096;-93
2021/03/18 00:12:40;;;;;;;6.53;1.73;;;5.00;92.00;;;;;;5074420;28;20067;-92
2021/03/18 00:15:12;;;;;;;4.70;1.40;;;5.00;92.00;;;;;;5056504;28;20057;-93
2021/03/18 00:17:38;;;;;;;6.88;1.98;;;5.00;92.00;;;;;;5073624;28;20036;-92
2021/03/18 00:20:08;;;;;;;4.38;1.60;;;5.00;92.00;;;;;;5073778;28;20038;-94
2021/03/18 00:22:41;;;;;;;4.05;1.45;;;5.00;92.00;;;;;;5051377;28;20021;-92
2021/03/18 00:25:09;;;;;;;2.80;1.27;;;4.90;91.90;;;;;;5073237;28;20082;-93
2021/03/18 00:27:35;;;;;;;4.72;1.80;;;4.90;92.00;;;;;;5072882;28;20069;-92
2021/03/18 00:30:02;;;;;;;6.63;1.35;;;4.90;92.00;;;;;;5073590;28;20128;-93
2021/03/18 00:32:27;;;;;;;2.90;1.30;;;4.80;92.00;;;;;;5072617;28;20132;-92
2021/03/18 00:34:53;;;;;;;7.18;1.42;;;4.80;92.00;;;;;;5055920;28;20365;-94
2021/03/18 00:37:19;;;;;;;4.30;1.90;;;4.80;92.00;;;;;;5055965;28;20082;-93
2021/03/18 00:39:44;;;;;;;4.43;1.50;;;4.70;92.00;;;;;;5055653;28;20036;-94
2021/03/18 00:42:11;;;;;;;4.35;1.35;;;4.80;92.00;;;;;;5072859;28;20032;-93
2021/03/18 00:44:36;;;;;;;3.95;1.50;;;4.70;92.00;;;;;;5056315;28;20028;-93
2021/03/18 00:47:02;;;;;;;3.75;1.38;;;4.70;92.00;;;;;;5072572;28;20047;-93
2021/03/18 00:49:28;;;;;;;5.15;1.50;;;4.70;92.00;;;;;;5073751;28;20627;-92
2021/03/18 00:51:53;;;;;;;4.57;1.60;;;4.60;92.00;;;;;;5056745;28;20020;-91
2021/03/18 00:54:19;;;;;;;3.47;1.23;;;4.60;92.00;;;;;;5056627;28;20596;-93
2021/03/18 00:56:45;;;;;;;3.75;1.60;;;4.60;92.10;;;;;;5074925;28;20032;-93
2021/03/18 00:59:10;;;;;;;3.85;1.48;;;4.60;92.10;;;;;;5056052;28;20272;-93
2021/03/18 01:01:36;;;;;;;5.63;1.88;;;4.60;92.00;;;;;;5072408;28;20055;-93
2021/03/18 01:04:04;;;;;;;5.85;1.70;;;4.50;92.10;;;;;;5056894;28;20484;-92
2021/03/18 01:06:30;;;;;;;3.72;1.60;;;4.50;92.10;;;;;;5053316;28;20056;-94
2021/03/18 01:08:58;;;;;;;5.10;1.70;;;4.50;92.10;;;;;;5055809;28;20028;-94
2021/03/18 01:11:36;;;;;;;5.72;2.55;;;4.50;92.10;;;;;;5073796;28;20027;-93
2021/03/18 01:14:09;;;;;;;4.65;1.50;;;4.50;92.20;;;;;;5067864;28;20001;-94
2021/03/18 01:16:47;;;;;;;7.25;2.45;;;4.50;92.20;;;;;;5066506;28;20005;-91
2021/03/18 01:19:13;;;;;;;4.93;1.63;;;4.40;92.20;;;;;;5073295;28;20028;-93
2021/03/18 01:21:45;;;;;;;6.43;1.65;;;4.40;92.20;;;;;;5058170;28;20028;-94
2021/03/18 01:24:12;;;;;;;3.60;1.77;;;4.40;92.30;;;;;;5076502;28;20025;-91
2021/03/18 01:26:39;;;;;;;4.47;1.58;;;4.40;92.30;;;;;;5065655;28;20036;-90
2021/03/18 01:29:05;;;;;;;4.30;1.48;;;4.40;92.50;;;;;;5092037;28;20013;-92
2021/03/18 01:31:32;;;;;;;5.93;1.90;;;4.40;92.30;;;;;;5062718;28;20124;-93
2021/03/18 01:33:57;;;;;;;5.38;1.52;;;4.30;92.30;;;;;;5056457;28;20033;-92
2021/03/18 01:36:24;;;;;;;5.57;1.80;;;4.30;92.30;;;;;;5073118;28;20115;-92
2021/03/18 01:38:50;;;;;;;4.35;1.80;;;4.30;92.30;;;;;;5078140;28;20032;-95
2021/03/18 01:41:16;;;;;;;3.42;1.60;;;4.30;92.30;;;;;;5059377;28;20029;-95
2021/03/18 01:43:43;;;;;;;5.68;1.42;;;4.30;92.30;;;;;;5064148;28;20083;-93
2021/03/18 01:46:10;;;;;;;6.28;2.08;;;4.20;92.30;;;;;;5076592;28;20063;-94
2021/03/18 01:48:35;;;;;;;4.95;1.90;;;4.30;92.30;;;;;;5080922;28;20021;-91
2021/03/18 01:51:02;;;;;;;4.75;1.88;;;4.20;92.30;;;;;;5076379;28;20060;-92
2021/03/18 01:53:29;;;;;;;7.60;1.77;;;4.20;92.30;;;;;;5073152;28;20118;-92
2021/03/18 01:55:57;;;;;;;8.52;2.30;;;4.20;92.30;;;;;;5087612;28;20170;-93
2021/03/18 01:58:23;;;;;;;5.65;1.83;;;4.20;92.30;;;;;;5077716;28;20024;-93
2021/03/18 02:00:55;;;;;;;5.45;1.90;;;4.20;92.30;;;;;;5078290;28;20085;-94
2021/03/18 02:03:21;;;;;;;5.03;1.77;;;4.10;92.30;;;;;;5076186;28;20030;-95
2021/03/18 02:05:47;;;;;;;6.00;2.05;;;4.10;92.30;;;;;;5059958;28;20056;-94
2021/03/18 02:08:14;;;;;;;3.50;1.70;;;4.10;92.30;;;;;;5076619;28;20036;-93
2021/03/18 02:10:40;;;;;;;3.50;1.77;;;4.10;92.30;;;;;;5059050;28;20048;-93
2021/03/18 02:13:08;;;;;;;4.68;1.65;;;4.10;92.40;;;;;;5077449;28;20031;-93
2021/03/18 02:15:38;;;;;;;4.82;1.73;;;4.00;92.40;;;;;;5076031;28;20021;-92
2021/03/18 02:18:22;;;;;;;4.68;1.80;;;4.00;92.40;;;;;;5076018;28;20023;-91
2021/03/18 02:21:16;;;;;;;3.83;2.05;;;4.00;92.40;;;;;;5075662;28;20017;-93
2021/03/18 02:24:11;;;;;;;5.53;1.98;;;4.00;92.50;;;;;;5076646;28;20082;-93
2021/03/18 02:26:58;;;;;;;4.25;1.80;;;4.00;92.50;;;;;;5062286;28;20103;-93
2021/03/18 02:30:00;;;;;;;5.65;1.80;;;4.00;92.50;;;;;;5076959;28;20048;-93
2021/03/18 02:32:56;;;;;;;4.95;1.85;;;4.00;92.60;;;;;;5076850;28;20048;-93
2021/03/18 02:35:31;;;;;;;7.93;2.88;;;3.90;92.50;;;;;;5064882;28;20030;-93
2021/03/18 02:38:12;;;;;;;5.57;2.50;;;3.90;92.50;;;;;;5076179;28;20034;-92
2021/03/18 02:40:41;;;;;;;5.88;1.85;;;3.80;92.50;;;;;;5076619;28;20028;-93
2021/03/18 02:43:11;;;;;;;4.90;1.85;;;3.80;92.60;;;;;;5075870;28;20034;-93
2021/03/18 02:45:42;;;;;;;6.72;2.15;;;3.80;92.60;;;;;;5076577;28;20032;-92
2021/03/18 02:48:09;;;;;;;;;;;3.80;92.70;;;;;;5076621;28;20028;-93
2021/03/18 02:50:36;;;;;;;21.30;2.95;;;3.80;92.70;;;;;;5076407;28;19949;-93
2021/03/18 02:53:04;;;;;;;7.38;2.40;;;3.70;92.60;;;;;;5075482;28;20549;-93
2021/03/18 02:55:31;;;;;;;7.75;2.45;;;3.70;92.60;;;;;;5058520;28;20047;-94
2021/03/18 02:58:00;;;;;;;6.25;2.00;;;3.70;92.60;;;;;;5052828;28;20370;-93
2021/03/18 03:00:26;;;;;;;5.07;1.90;;;3.60;92.70;;;;;;5072161;28;20029;-93
2021/03/18 03:02:54;;;;;;;5.03;1.95;;;3.60;93.00;;;;;;5060842;28;20057;-90
2021/03/18 03:05:22;;;;;;;5.78;2.83;;;3.60;92.80;;;;;;5074361;28;20052;-93
2021/03/18 03:07:49;;;;;;;2.67;1.45;;;3.60;92.80;;;;;;5075741;28;20453;-93
2021/03/18 03:10:19;;;;;;;5.00;1.73;;;3.70;92.80;;;;;;5056665;28;20059;-92
2021/03/18 03:12:45;;;;;;;3.00;1.75;;;3.70;92.80;;;;;;5074123;28;20027;-93
2021/03/18 03:15:12;;;;;;;5.00;1.55;;;3.70;92.80;;;;;;5074854;28;20028;-91
2021/03/18 03:17:40;;;;;;;4.22;2.03;;;3.70;92.80;;;;;;5076085;28;20024;-94
2021/03/18 03:20:09;;;;;;;4.05;1.70;;;3.70;92.80;;;;;;5074681;28;20020;-94
2021/03/18 03:22:36;;;;;;;4.43;1.98;;;3.70;92.80;;;;;;5043705;28;20177;-92
2021/03/18 03:25:05;;;;;;;5.35;2.38;;;3.70;92.80;;;;;;5054636;28;20056;-92
2021/03/18 03:27:31;;;;;;;4.20;1.73;;;3.70;92.80;;;;;;5075724;28;20024;-90
2021/03/18 03:29:58;;;;;;;3.65;1.83;;;3.70;92.80;;;;;;5054500;28;20029;-92
2021/03/18 03:32:24;;;;;;;4.93;1.80;;;3.70;92.90;;;;;;5039296;28;20182;-90
2021/03/18 03:34:50;;;;;;;6.80;2.17;;;3.60;92.90;;;;;;5074612;28;20047;-93
2021/03/18 03:37:15;;;;;;;5.15;2.53;;;3.60;92.90;;;;;;5074321;28;20025;-93
2021/03/18 03:39:41;;;;;;;4.90;1.85;;;3.70;92.90;;;;;;5043203;28;20095;-93
2021/03/18 03:42:09;;;;;;;7.18;1.92;;;3.70;92.90;;;;;;5053442;28;20039;-94
2021/03/18 03:44:36;;;;;;;5.63;2.00;;;3.60;92.90;;;;;;5056913;28;20377;-94
2021/03/18 03:47:04;;;;;;;5.25;2.03;;;3.70;93.00;;;;;;5074856;28;20464;-93
2021/03/18 03:49:30;;;;;;;6.03;1.98;;;3.60;92.90;;;;;;5072955;28;20024;-92
2021/03/18 03:52:08;;;;;;;4.85;1.83;;;3.60;92.90;;;;;;5053631;28;20029;-91
2021/03/18 03:54:41;;;;;;;4.85;2.03;;;3.60;92.90;;;;;;5071021;28;20103;-91
2021/03/18 03:57:27;;;;;;;3.90;1.80;;;3.60;92.90;;;;;;5073455;28;20021;-93
2021/03/18 03:59:56;;;;;;;6.72;2.47;;;3.60;92.90;;;;;;5073480;28;20013;-93
2021/03/18 04:02:25;;;;;;;4.05;2.13;;;3.60;92.90;;;;;;5073491;28;20036;-93
2021/03/18 04:04:52;;;;;;;3.95;2.10;;;3.60;93.00;;;;;;5070579;28;20044;-94
2021/03/18 04:07:33;;;;;;;5.00;2.50;;;3.60;93.00;;;;;;5061679;28;20020;-94
2021/03/18 04:10:01;;;;;;;12.18;3.70;;;3.50;93.00;;;;;;5056932;28;20040;-94
2021/03/18 04:12:34;;;;;;;4.97;2.00;;;3.50;93.00;;;;;;5075041;28;20028;-92
2021/03/18 04:15:04;;;;;;;5.07;2.53;;;3.60;93.10;;;;;;5074035;28;20089;-88
2021/03/18 04:17:32;;;;;;;6.57;2.88;;;3.50;93.10;;;;;;5074064;28;20028;-94
2021/03/18 04:20:01;;;;;;;5.53;3.03;;;3.50;93.10;;;;;;5075534;28;20024;-92
2021/03/18 04:22:30;;;;;;;4.22;1.92;;;3.50;93.10;;;;;;5075991;28;20484;-92
2021/03/18 04:24:58;;;;;;;6.60;3.13;;;3.50;93.10;;;;;;5091222;28;20035;-89
2021/03/18 04:27:24;;;;;;;5.50;2.78;;;3.50;93.10;;;;;;5085745;28;20028;-92
2021/03/18 04:29:50;;;;;;;7.53;2.40;;;3.40;93.10;;;;;;5074982;28;20480;-93
2021/03/18 04:32:16;;;;;;;6.53;2.80;;;3.40;93.10;;;;;;5073492;28;20025;-94
2021/03/18 04:34:43;;;;;;;7.55;2.67;;;3.40;93.10;;;;;;5046419;28;20100;-93
2021/03/18 04:37:10;;;;;;;5.05;2.20;;;3.40;93.20;;;;;;5069060;28;20036;-94
2021/03/18 04:39:39;;;;;;;6.50;2.20;;;3.40;93.10;;;;;;5073010;28;20473;-94
2021/03/18 04:42:06;;;;;;;5.65;2.35;;;3.40;93.10;;;;;;5073455;28;20029;-93
2021/03/18 04:44:33;;;;;;;5.68;2.60;;;3.40;93.10;;;;;;5052720;28;20040;-93
2021/03/18 04:47:01;;;;;;;3.47;1.85;;;3.40;93.10;;;;;;5066167;28;20492;-94
2021/03/18 04:49:27;;;;;;;6.38;2.92;;;3.40;93.20;;;;;;5073572;28;20029;-94
2021/03/18 04:51:54;;;;;;;6.88;2.33;;;3.30;93.10;;;;;;5073097;28;20056;-93
2021/03/18 04:54:20;;;;;;;5.72;2.47;;;3.30;93.20;;;;;;5052249;28;20028;-93
2021/03/18 04:56:48;;;;;;;6.95;2.30;;;3.30;93.20;;;;;;5073164;28;20029;-92
2021/03/18 04:59:16;;;;;;;7.72;2.63;;;3.30;93.20;;;;;;5072784;28;20110;-94
2021/03/18 05:01:48;;;;;;;6.22;2.53;;;3.30;93.30;;;;;;5072834;28;20031;-94
2021/03/18 05:04:19;;;;;;;5.25;2.50;;;3.30;93.30;;;;;;5053075;28;20033;-91
2021/03/18 05:06:49;;;;;;;;;;;3.30;93.30;;;;;;5072874;28;20063;-93
2021/03/18 05:09:16;;;;;;;7.28;2.90;;;3.30;93.30;;;;;;5072284;28;19916;-93
2021/03/18 05:11:42;;;;;;;7.93;2.70;;;3.30;93.30;;;;;;5073852;28;20017;-92
2021/03/18 05:14:09;;;;;;;7.95;2.78;;;3.30;93.40;;;;;;5048090;28;20389;-93
2021/03/18 05:16:36;;;;;;;6.78;2.60;;;3.30;93.40;;;;;;5068535;28;20115;-93
2021/03/18 05:19:04;;;;;;;9.18;2.92;;;3.30;93.50;;;;;;5073213;28;20024;-93
2021/03/18 05:21:31;;;;;;;8.13;2.97;;;3.30;93.50;;;;;;5073314;28;20029;-94
2021/03/18 05:23:58;;;;;;;5.43;2.40;;;3.30;93.50;;;;;;5073575;28;20393;-91
2021/03/18 05:26:24;;;;;;;6.38;2.60;;;3.30;93.50;;;;;;5074040;28;20070;-92
2021/03/18 05:28:50;;;;;;;5.80;2.42;;;3.30;93.60;;;;;;5074137;28;20822;-92
2021/03/18 05:31:16;;;;;;;5.38;2.50;;;3.30;93.60;;;;;;5073060;28;20025;-93
2021/03/18 05:33:41;;;;;;;5.63;2.47;;;3.30;93.60;;;;;;5073383;28;20106;-94
2021/03/18 05:36:07;;;;;;;8.82;2.80;;;3.40;93.60;;;;;;5053367;28;20082;-94
2021/03/18 05:38:33;;;;;;;5.45;2.50;;;3.40;93.60;;;;;;5053392;28;20025;-93
2021/03/18 05:40:59;;;;;;;8.45;2.67;;;3.40;93.70;;;;;;5073667;28;20096;-93
2021/03/18 05:43:25;;;;;;;6.70;2.75;;;3.40;93.70;;;;;;5072810;28;20568;-93
2021/03/18 05:45:51;;;;;;;7.32;2.72;;;3.40;93.70;;;;;;5074079;28;20068;-93
2021/03/18 05:48:21;;;;;;;9.52;4.22;;;3.40;93.70;;;;;;5073064;28;20032;-94
2021/03/18 05:50:47;;;;;;;8.70;2.90;;;3.40;93.70;;;;;;5073590;28;20067;-92
2021/03/18 05:53:15;;;;;;;9.18;3.03;;;3.30;93.70;;;;;;5073337;28;20021;-91
2021/03/18 05:55:41;;;;;;;6.63;2.40;;;3.40;93.80;;;;;;5073272;28;20028;-92
2021/03/18 05:58:09;;;;;;;6.18;2.40;;;3.40;93.80;;;;;;5073483;28;20116;-91
2021/03/18 06:00:36;;;;;;;5.88;2.25;;;3.40;93.80;;;;;;5073602;28;20035;-91
2021/03/18 06:03:02;;;;;;;5.80;2.33;;;3.40;93.80;;;;;;5073835;28;20495;-92
2021/03/18 06:05:28;;;;;;;9.35;2.30;;;3.40;93.90;;;;;;5056963;28;20056;-92
2021/03/18 06:07:53;;;;;;;11.07;3.53;;;3.40;93.90;;;;;;5038912;28;20033;-91
2021/03/18 06:10:22;;;;;;;7.72;2.50;;;3.40;93.90;;;;;;5070660;28;20481;-91
2021/03/18 06:12:49;;;;;;;6.45;2.65;;;3.50;93.90;;;;;;5075823;28;20028;-93
2021/03/18 06:15:15;;;;;;;5.60;2.40;;;3.40;93.90;;;;;;5076568;28;20090;-92
2021/03/18 06:17:43;;;;;;;5.05;2.13;;;3.50;94.00;;;;;;5075779;28;20033;-92
2021/03/18 06:20:18;;;;;;;7.55;2.63;;;3.50;94.00;;;;;;5058431;28;20024;-92
2021/03/18 06:22:46;;;;;;;6.72;3.20;;;3.40;94.00;;;;;;5085515;28;20127;-92
2021/03/18 06:25:24;;;;;;;8.00;3.20;;;3.40;94.00;;;;;;5081164;28;20086;-93
2021/03/18 06:28:08;;;;;;;9.13;3.22;;;3.40;94.10;;;;;;5074487;28;20036;-92
2021/03/18 06:30:34;;;;;;;13.05;4.35;;;3.40;94.10;;;;;;5073706;28;20043;-90
2021/03/18 06:33:16;;;;;;;6.35;3.13;;;3.40;94.20;;;;;;5074091;28;20033;-89
2021/03/18 06:35:41;;;;;;;8.63;3.45;;;3.40;94.20;;;;;;5074880;28;20037;-91
2021/03/18 06:38:07;;;;;;;9.23;3.28;;;3.40;94.30;;;;;;5055601;28;20029;-93
2021/03/18 06:40:42;;;;;;;14.07;3.65;;;3.40;94.30;;;;;;5071169;28;20476;-91
2021/03/18 06:43:09;;;;;;;7.43;2.83;;;3.50;94.30;;;;;;5076505;28;20025;-92
2021/03/18 06:45:37;;;;;;;6.35;2.97;;;3.50;94.30;;;;;;5075216;28;20421;-95
2021/03/18 06:48:15;;;;;;;6.05;2.88;;;3.50;94.30;;;;;;5075807;28;20056;-92
2021/03/18 06:50:46;;;;;;;5.50;2.50;;;3.50;94.30;;;;;;5074895;28;20050;-92
2021/03/18 06:53:24;;;;;;;7.68;2.90;;;3.50;94.30;;;;;;5075439;28;20036;-86
2021/03/18 06:55:51;;;;;;;9.73;4.10;;;3.50;94.30;;;;;;5088401;28;20029;-90
2021/03/18 06:58:25;;;;;;;7.93;3.38;;;3.60;94.40;;;;;;5086661;28;20020;-91
2021/03/18 07:00:55;;;;;;;11.13;3.90;;;3.60;94.40;;;;;;5077301;28;20027;-93
2021/03/18 07:03:33;;;;;;;7.55;3.35;;;3.50;94.40;;;;;;5074275;28;20430;-92
2021/03/18 07:06:00;;;;;;;10.00;3.67;;;3.60;94.40;;;;;;5075937;28;20118;-91
2021/03/18 07:08:38;;;;;;;8.10;3.08;;;3.60;94.50;;;;;;5075158;28;20033;-92
2021/03/18 07:11:19;;;;;;;12.05;4.10;;;3.60;94.50;;;;;;5074684;28;20048;-92
2021/03/18 07:13:45;;;;;;;9.05;3.90;;;3.70;94.60;;;;;;5068994;28;20120;-92
2021/03/18 07:16:13;;;;;;;7.80;3.05;;;3.60;94.70;;;;;;5038641;28;20538;-92
2021/03/18 07:18:39;;;;;;;10.27;3.80;;;3.60;94.60;;;;;;5042812;28;20025;-95
2021/03/18 07:21:13;;;;;;;13.32;3.90;;;3.70;94.60;;;;;;5075786;28;20032;-94
2021/03/18 07:23:45;;;;;;;11.68;3.70;;;3.70;94.70;;;;;;5074691;28;20020;-94
2021/03/18 07:26:16;;;;;;;9.32;3.78;;;3.70;94.70;;;;;;5075435;28;20054;-94
2021/03/18 07:28:44;;;;;;;12.10;3.67;;;3.70;94.70;;;;;;5074333;28;20464;-94
2021/03/18 07:31:11;;;;;;;8.40;3.40;;;3.80;94.80;;;;;;5056839;28;20029;-93
2021/03/18 07:33:37;;;;;;;8.88;3.67;;;3.90;94.80;;;;;;5072466;28;20248;-94
2021/03/18 07:36:04;;;;;;;9.88;4.15;;;3.80;94.70;;;;;;5074571;28;20024;-92
2021/03/18 07:38:30;;;;;;;9.93;4.57;;;3.90;94.70;;;;;;5076102;28;20020;-94
2021/03/18 07:40:57;;;;;;;11.10;4.47;;;3.90;94.80;;;;;;5076369;28;20074;-93
2021/03/18 07:43:26;;;;;;;8.00;4.00;;;3.90;94.80;;;;;;5074807;28;20028;-93
2021/03/18 07:45:53;;;;;;;12.52;4.40;;;3.90;94.80;;;;;;5074402;28;20050;-93
2021/03/18 07:48:24;;;;;;;15.45;4.53;;;4.00;94.80;;;;;;5077095;28;20051;-94
2021/03/18 07:50:53;;;;;;;11.20;4.40;;;4.00;94.90;;;;;;5075144;28;20024;-93
2021/03/18 07:53:21;;;;;;;12.40;4.70;;;4.00;94.90;;;;;;5058976;28;20039;-94
2021/03/18 07:55:49;;;;;;;15.05;5.38;;;4.10;94.90;;;;;;5075157;28;20039;-93
2021/03/18 07:58:34;;;;;;;11.73;4.80;;;4.10;94.90;;;;;;5053847;28;20543;-93
2021/03/18 08:01:00;;;;;;;10.43;5.43;;;4.10;95.00;;;;;;5057556;28;20051;-92
2021/03/18 08:03:26;;;;;;;9.30;5.40;;;4.10;95.00;;;;;;5071103;28;20028;-91
2021/03/18 08:05:52;;;;;;;10.90;4.82;;;4.10;95.00;;;;;;5048473;28;20057;-93
2021/03/18 08:08:39;;;;;;;10.57;4.70;;;4.10;95.10;;;;;;5073503;28;20169;-88
2021/03/18 08:11:33;;;;;;;7.82;4.97;;;4.20;95.10;;;;;;5076083;28;20031;-94
2021/03/18 08:14:10;;;;;;;8.32;4.25;;;4.20;95.10;;;;;;5075152;28;20028;-95
2021/03/18 08:16:36;;;;;;;11.60;4.80;;;4.30;95.20;;;;;;5073849;28;20125;-93
2021/03/18 08:19:05;;;;;;;11.52;4.82;;;4.30;95.20;;;;;;5059613;28;20054;-96
2021/03/18 08:21:45;;;;;;;9.82;5.15;;;4.30;95.20;;;;;;5086723;28;20029;-91
2021/03/18 08:24:17;;;;;;;10.80;4.80;;;4.40;95.20;;;;;;5061908;28;20051;-94
2021/03/18 08:26:44;;;;;;;;;;;4.40;95.20;;;;;;5076527;28;20086;-94
2021/03/18 08:29:21;;;;;;;9.52;4.53;;;4.50;95.20;;;;;;5063390;28;19908;-94
2021/03/18 08:31:59;;;;;;;12.27;5.00;;;4.50;95.20;;;;;;5073555;28;20024;-91
2021/03/18 08:34:45;;;;;;;9.25;4.97;;;4.50;95.30;;;;;;5068530;28;20028;-96
2021/03/18 08:37:12;;;;;;;10.05;5.15;;;4.60;95.40;;;;;;5066676;28;20021;-95
2021/03/18 08:39:40;;;;;;;9.73;4.40;;;4.60;95.40;;;;;;5069784;28;20168;-96
2021/03/18 08:42:29;;;;;;;8.98;4.72;;;4.70;95.40;;;;;;5073214;28;20047;-95
2021/03/18 08:45:08;;;;;;;11.90;6.18;;;4.70;95.50;;;;;;5071665;28;20032;-95
2021/03/18 08:47:48;;;;;;;16.85;7.70;;;4.80;95.50;;;;;;5082507;28;20035;-86
2021/03/18 08:50:33;;;;;;;16.35;8.18;;;4.80;95.90;;;;;;5084761;28;20025;-90
2021/03/18 08:53:00;;;;;;;12.00;5.90;;;4.80;95.60;;;;;;5065699;28;20028;-89
2021/03/18 08:55:44;;;;;;;16.52;7.97;;;4.90;95.60;;;;;;5049334;28;20488;-96
2021/03/18 08:58:11;;;;;;;13.82;6.47;;;4.90;95.70;;;;;;5071564;28;20040;-94
2021/03/18 09:00:38;;;;;;;12.13;6.30;;;4.90;95.70;;;;;;5073873;28;20047;-96
2021/03/18 09:03:05;;;;;;;19.15;8.80;;;4.90;95.80;;;;;;5064707;28;20024;-93
2021/03/18 09:05:32;;;;;;;19.88;8.40;;;5.00;96.10;;;;;;5072007;28;20045;-91
2021/03/18 09:08:00;;;;;;;20.95;11.82;;;5.00;96.10;;;;;;5070600;28;20028;-96
2021/03/18 09:10:30;;;;;;;26.13;12.75;;;5.00;96.70;;;;;;5055471;28;20025;-95
2021/03/18 09:13:05;;;;;;;14.32;7.72;;;5.10;96.60;;;;;;5078114;28;20032;-93
2021/03/18 09:15:36;;;;;;;13.43;6.75;;;5.10;96.40;;;;;;5074755;28;20036;-96
2021/03/18 09:18:33;;;;;;;12.80;7.35;;;5.10;96.40;;;;;;5080559;28;20074;-95
2021/03/18 09:21:07;;;;;;;10.57;6.30;;;5.20;96.30;;;;;;5077736;28;20021;-96
2021/03/18 09:23:42;;;;;;;14.63;6.45;;;5.30;96.30;;;;;;5079811;28;20404;-95
2021/03/18 09:26:11;;;;;;;17.05;8.00;;;5.30;96.30;;;;;;5083864;28;20028;-91
2021/03/18 09:28:42;;;;;;;18.27;8.13;;;5.40;96.30;;;;;;5093648;28;20052;-87
2021/03/18 09:31:08;;;;;;;15.80;7.40;;;5.40;96.30;;;;;;5090663;28;20559;-90
2021/03/18 09:33:43;;;;;;;25.08;11.07;;;5.50;96.30;;;;;;5049299;28;20038;-89
2021/03/18 09:36:14;;;;;;;17.50;9.55;;;5.50;96.70;;;;;;5074496;28;20029;-86
2021/03/18 09:38:41;;;;;;;17.88;9.13;;;5.50;96.90;;;;;;5059472;28;20485;-89
2021/03/18 09:41:19;;;;;;;20.70;8.75;;;5.60;96.80;;;;;;5068562;28;20029;-90
2021/03/18 09:43:44;;;;;;;20.85;11.80;;;5.70;96.70;;;;;;5078344;28;20028;-94
2021/03/18 09:46:10;;;;;;;24.80;11.85;;;5.70;97.10;;;;;;5073223;28;20040;-90
2021/03/18 09:48:38;;;;;;;26.50;10.60;;;5.70;97.20;;;;;;5049179;28;20033;-89
2021/03/18 09:51:13;;;;;;;27.23;11.98;;;5.80;97.10;;;;;;5077670;28;20029;-91
2021/03/18 09:53:41;;;;;;;23.92;10.02;;;5.90;97.20;;;;;;5074295;28;20021;-84
2021/03/18 09:56:10;;;;;;;20.67;8.45;;;5.90;97.20;;;;;;5074076;28;20016;-90
2021/03/18 09:58:36;;;;;;;25.67;10.13;;;6.00;97.10;;;;;;5076067;28;20035;-91
2021/03/18 10:01:14;;;;;;;24.92;11.70;;;6.00;97.30;;;;;;5076005;28;20464;-91
2021/03/18 10:03:59;;;;;;;17.98;8.82;;;6.10;97.40;;;;;;5071494;28;20489;-87
2021/03/18 10:06:39;;;;;;;21.75;9.95;;;6.10;97.20;;;;;;5066906;28;20049;-94
2021/03/18 10:09:16;;;;;;;18.20;6.50;;;6.10;97.30;;;;;;5072360;28;20056;-93
2021/03/18 10:11:55;;;;;;;21.73;8.00;;;6.20;97.10;;;;;;5059729;28;20017;-90
2021/03/18 10:14:30;;;;;;;16.38;6.28;;;6.20;97.00;;;;;;5077395;28;20024;-92
2021/03/18 10:16:57;;;;;;;20.80;7.22;;;6.30;96.90;;;;;;5076950;28;20032;-94
2021/03/18 10:19:27;;;;;;;17.80;7.30;;;6.30;96.80;;;;;;5078172;28;20102;-92
2021/03/18 10:21:54;;;;;;;18.40;5.55;;;6.40;96.80;;;;;;5076468;28;20796;-94
2021/03/18 10:24:19;;;;;;;27.60;7.50;;;6.40;96.80;;;;;;5086415;28;20017;-88
2021/03/18 10:26:45;;;;;;;16.20;5.75;;;6.50;96.70;;;;;;5055413;28;20739;-88
2021/03/18 10:29:12;;;;;;;17.60;5.32;;;6.50;96.60;;;;;;5035285;28;20036;-94
2021/03/18 10:31:40;;;;;;;20.67;5.40;;;6.60;96.60;;;;;;5060813;28;20025;-94
2021/03/18 10:34:19;;;;;;;14.77;4.65;;;6.60;96.60;;;;;;5062439;28;20052;-94
2021/03/18 10:36:44;;;;;;;17.73;4.45;;;6.70;96.50;;;;;;5076834;28;20021;-92
2021/03/18 10:39:12;;;;;;;19.08;4.72;;;6.70;96.50;;;;;;5076984;28;20029;-94
2021/03/18 10:42:00;;;;;;;20.30;5.97;;;6.80;96.50;;;;;;5049441;28;20600;-94
2021/03/18 10:44:37;;;;;;;19.48;4.50;;;6.80;96.50;;;;;;5058268;28;20041;-96
2021/03/18 10:47:20;;;;;;;17.73;4.13;;;6.90;96.50;;;;;;5069838;28;20021;-93
2021/03/18 10:50:02;;;;;;;12.88;3.88;;;7.00;96.50;;;;;;5056598;28;20029;-95
2021/03/18 10:52:28;;;;;;;12.02;3.63;;;7.00;96.40;;;;;;5057713;28;20028;-88
2021/03/18 10:54:57;;;;;;;9.00;3.60;;;7.10;96.40;;;;;;5042856;28;20544;-92
2021/03/18 10:57:24;;;;;;;20.25;5.95;;;7.10;96.40;;;;;;5078113;28;20086;-92
2021/03/18 11:00:00;;;;;;;16.67;5.25;;;7.20;96.40;;;;;;5077088;28;20111;-92
2021/03/18 11:02:30;;;;;;;16.20;4.15;;;7.40;96.30;;;;;;5065613;28;20095;-93
2021/03/18 11:05:03;;;;;;;17.50;3.67;;;7.40;96.20;;;;;;5077621;28;20056;-93
2021/03/18 11:07:30;;;;;;;14.40;4.30;;;7.50;96.10;;;;;;5061370;28;20052;-92
2021/03/18 11:10:13;;;;;;;14.25;3.97;;;7.50;96.00;;;;;;5059677;28;20493;-96
2021/03/18 11:12:40;;;;;;;17.83;4.95;;;7.60;95.80;;;;;;5065900;28;20029;-92
2021/03/18 11:15:08;;;;;;;13.82;4.10;;;7.60;95.80;;;;;;5054133;28;20111;-91
2021/03/18 11:17:34;;;;;;;12.88;4.05;;;7.60;95.70;;;;;;5066126;28;20025;-91
2021/03/18 11:20:12;;;;;;;11.73;3.83;;;7.60;95.70;;;;;;5074592;28;20035;-93
2021/03/18 11:22:38;;;;;;;10.30;2.88;;;7.70;95.80;;;;;;5074167;28;20028;-94
2021/03/18 11:25:06;;;;;;;22.15;6.75;;;7.70;95.80;;;;;;5071657;28;20496;-91
2021/03/18 11:27:33;;;;;;;17.92;4.53;;;7.70;95.80;;;;;;5070505;28;20094;-94
2021/03/18 11:29:59;;;;;;;14.52;4.28;;;7.80;95.50;;;;;;5058125;28;20567;-93
2021/03/18 11:32:26;;;;;;;14.63;4.35;;;7.80;95.50;;;;;;5053722;28;20029;-92
2021/03/18 11:34:54;;;;;;;17.58;4.75;;;7.90;95.50;;;;;;5072459;28;20024;-93
2021/03/18 11:37:20;;;;;;;16.75;4.75;;;7.90;95.40;;;;;;5060809;28;20020;-93
2021/03/18 11:39:45;;;;;;;15.75;4.72;;;7.90;95.30;;;;;;5035119;28;20025;-94
2021/03/18 11:42:11;;;;;;;13.10;4.05;;;8.00;95.10;;;;;;5036966;28;20025;-93
2021/03/18 11:44:37;;;;;;;17.52;4.72;;;8.00;95.00;;;;;;5073648;28;20040;-93
2021/03/18 11:47:05;;;;;;;12.77;3.90;;;8.00;95.00;;;;;;5055387;28;20029;-88
2021/03/18 11:49:30;;;;;;;16.42;3.97;;;8.10;94.90;;;;;;5073297;28;20051;-92
2021/03/18 11:51:56;;;;;;;14.75;4.68;;;8.10;94.80;;;;;;5071684;28;20119;-91
2021/03/18 11:54:22;;;;;;;18.30;4.45;;;8.10;94.80;;;;;;5074364;28;20040;-90
2021/03/18 11:56:47;;;;;;;17.63;5.32;;;8.10;94.70;;;;;;5066628;28;20028;-87
2021/03/18 11:59:13;;;;;;;13.10;3.10;;;8.10;94.50;;;;;;5091627;28;20046;-92
2021/03/18 12:01:42;;;;;;;19.45;4.35;;;8.10;94.50;;;;;;5074689;28;20024;-91
2021/03/18 12:04:08;;;;;;;13.07;3.08;;;8.10;94.40;;;;;;5068326;28;20024;-91
2021/03/18 12:06:34;;;;;;;13.93;3.90;;;8.20;94.40;;;;;;5073230;28;20146;-73
2021/03/18 12:08:59;;;;;;;9.73;2.65;;;8.20;94.40;;;;;;5076058;28;20112;-90
2021/03/18 12:11:25;;;;;;;12.82;3.22;;;8.20;94.40;;;;;;5058280;28;20032;-93
2021/03/18 12:13:51;;;;;;;13.80;2.88;;;8.20;94.30;;;;;;5066806;28;20048;-92
2021/03/18 12:16:16;;;;;;;11.52;2.70;;;8.20;94.30;;;;;;5049124;28;20040;-94
2021/03/18 12:18:42;;;;;;;14.13;3.15;;;8.20;94.30;;;;;;5055155;28;20033;-92
2021/03/18 12:21:08;;;;;;;11.27;2.60;;;8.20;94.30;;;;;;5051718;28;20491;-91
2021/03/18 12:23:34;;;;;;;10.60;3.15;;;8.30;94.30;;;;;;5057571;28;20029;-93
2021/03/18 12:26:00;;;;;;;10.15;3.35;;;8.30;94.40;;;;;;5046568;28;20456;-92
2021/03/18 12:28:25;;;;;;;12.30;2.50;;;8.30;94.40;;;;;;5056949;28;20036;-92
2021/03/18 12:30:51;;;;;;;9.32;2.55;;;8.40;94.50;;;;;;5031264;28;20028;-94
2021/03/18 12:33:19;;;;;;;10.63;3.00;;;8.40;94.70;;;;;;5072087;28;20024;-94
2021/03/18 12:35:46;;;;;;;11.48;2.85;;;8.50;94.50;;;;;;5053980;28;20025;-93
2021/03/18 12:38:12;;;;;;;10.30;2.50;;;8.60;94.40;;;;;;5049453;28;20028;-92
2021/03/18 12:40:38;;;;;;;10.13;2.67;;;8.60;94.30;;;;;;5054913;28;20037;-90
2021/03/18 12:43:03;;;;;;;8.70;2.67;;;8.70;94.30;;;;;;5032378;28;20044;-93
2021/03/18 12:45:31;;;;;;;10.85;2.63;;;8.70;94.20;;;;;;5070223;28;20037;-93
2021/03/18 12:48:01;;;;;;;10.57;3.10;;;8.70;94.10;;;;;;5063611;28;20012;-94
2021/03/18 12:50:27;;;;;;;10.80;3.20;;;8.80;94.10;;;;;;5057239;28;20025;-93
2021/03/18 12:52:52;;;;;;;10.88;2.83;;;8.80;94.10;;;;;;5055348;28;20105;-94
2021/03/18 12:55:19;;;;;;;8.88;2.47;;;8.80;94.00;;;;;;5050908;28;20353;-92
2021/03/18 12:57:47;;;;;;;9.70;2.72;;;8.80;94.10;;;;;;5062363;28;20036;-91
2021/03/18 13:00:15;;;;;;;10.07;2.53;;;8.90;94.10;;;;;;5072138;28;20035;-93
2021/03/18 13:02:41;;;;;;;8.40;2.38;;;8.90;94.00;;;;;;5074379;28;20016;-92
2021/03/18 13:05:08;;;;;;;12.07;3.10;;;9.00;93.90;;;;;;5073896;28;20036;-92